Time;durP1;ratioP1;P1;durP2;ratioP2;P2;SDS_P1;SDS_P2;PMS_P1;PMS_P2;Temp;Humidity;BMP_temperature;BMP_pressure;BME280_temperature;BME280_humidity;BME280_pressure;Samples;Min_cycle;Max_cycle;Signal;HPM_P1;HPM_P2
2021/01/29 00:00:08;;;;;;;15.27;7.97;;;7.00;99.90;;;;;;4150153;28;20061;-84
2021/01/29 00:02:13;;;;;;;13.38;7.88;;;7.00;99.90;;;;;;4149656;28;20117;-84
2021/01/29 00:04:16;;;;;;;13.70;7.93;;;7.00;99.90;;;;;;4161997;28;20065;-84
2021/01/29 00:06:16;;;;;;;14.48;7.70;;;7.00;99.90;;;;;;4163854;28;20025;-84
2021/01/29 00:08:18;;;;;;;12.93;7.13;;;7.00;99.90;;;;;;4161728;28;20037;-84
2021/01/29 00:10:18;;;;;;;10.75;7.15;;;7.00;99.90;;;;;;4151454;28;20025;-84
2021/01/29 00:12:19;;;;;;;14.00;7.05;;;7.00;99.90;;;;;;4148027;28;20532;-84
2021/01/29 00:14:20;;;;;;;14.98;7.30;;;7.10;99.90;;;;;;4169076;28;20053;-84
2021/01/29 00:16:21;;;;;;;11.73;7.38;;;7.10;99.90;;;;;;4153884;28;20117;-84
2021/01/29 00:18:22;;;;;;;14.35;8.50;;;7.10;99.90;;;;;;4184170;28;20041;-84
2021/01/29 00:20:25;;;;;;;11.30;7.28;;;7.10;99.90;;;;;;4149379;28;20034;-84
2021/01/29 00:22:25;;;;;;;13.52;7.60;;;7.10;99.90;;;;;;4146295;28;20054;-84
2021/01/29 00:24:26;;;;;;;16.95;8.70;;;7.10;99.90;;;;;;4146178;28;20105;-84
2021/01/29 00:26:27;;;;;;;14.63;8.70;;;7.10;99.90;;;;;;4162572;28;20034;-84
2021/01/29 00:28:27;;;;;;;14.70;7.50;;;7.10;99.90;;;;;;4146324;28;20037;-84
2021/01/29 00:30:30;;;;;;;14.10;7.70;;;7.10;99.90;;;;;;4185706;28;20041;-84
2021/01/29 00:32:30;;;;;;;16.27;7.50;;;7.10;99.90;;;;;;4155661;28;20128;-84
2021/01/29 00:34:31;;;;;;;11.10;7.10;;;7.10;99.90;;;;;;4159758;28;20034;-84
2021/01/29 00:36:31;;;;;;;13.07;7.28;;;7.10;99.90;;;;;;4146215;28;20076;-84
2021/01/29 00:38:32;;;;;;;13.15;8.02;;;7.20;99.90;;;;;;4146427;28;20030;-84
2021/01/29 00:40:34;;;;;;;13.02;7.63;;;7.20;99.90;;;;;;4161958;28;20056;-84
2021/01/29 00:42:35;;;;;;;13.30;8.00;;;7.30;99.90;;;;;;4162967;28;20422;-84
2021/01/29 00:44:35;;;;;;;17.13;9.13;;;7.30;99.90;;;;;;4162758;28;20042;-84
2021/01/29 00:46:37;;;;;;;17.73;8.18;;;7.30;99.90;;;;;;4179276;28;20534;-84
2021/01/29 00:48:37;;;;;;;11.95;7.70;;;7.30;99.90;;;;;;4145912;28;20119;-84
2021/01/29 00:50:38;;;;;;;11.63;6.50;;;7.30;99.90;;;;;;4179168;28;20060;-84
2021/01/29 00:52:39;;;;;;;11.40;6.07;;;7.40;99.90;;;;;;4162288;28;20089;-84
2021/01/29 00:54:39;;;;;;;11.13;6.57;;;7.40;99.90;;;;;;4161667;28;20666;-84
2021/01/29 00:56:40;;;;;;;10.85;6.55;;;7.40;99.90;;;;;;4153521;28;20500;-84
2021/01/29 00:58:40;;;;;;;13.02;7.28;;;7.40;99.90;;;;;;4164411;28;20528;-84
2021/01/29 01:00:41;;;;;;;14.35;6.68;;;7.50;99.90;;;;;;4161253;28;20470;-84
2021/01/29 01:02:42;;;;;;;15.13;7.90;;;7.50;99.90;;;;;;4145992;28;20034;-84
2021/01/29 01:04:54;;;;;;;17.98;7.82;;;7.50;99.90;;;;;;4153508;28;20037;-84
2021/01/29 01:06:54;;;;;;;14.97;8.33;;;7.50;99.90;;;;;;4161678;28;20025;-84
2021/01/29 01:08:55;;;;;;;15.65;7.80;;;7.50;99.90;;;;;;4166207;28;20096;-84
2021/01/29 01:10:56;;;;;;;13.63;7.80;;;7.50;99.90;;;;;;4170153;28;20028;-84
2021/01/29 01:12:56;;;;;;;14.80;7.38;;;7.50;99.90;;;;;;4162179;28;20505;-84
2021/01/29 01:15:00;;;;;;;16.60;8.10;;;7.50;99.90;;;;;;4173820;28;20589;-84
2021/01/29 01:17:00;;;;;;;11.82;7.00;;;7.50;99.90;;;;;;4163388;28;20034;-84
2021/01/29 01:19:03;;;;;;;17.27;7.28;;;7.60;99.90;;;;;;4160959;28;20034;-84
2021/01/29 01:21:04;;;;;;;15.18;7.32;;;7.50;99.90;;;;;;4157341;28;20034;-84
2021/01/29 01:23:05;;;;;;;12.05;6.03;;;7.60;99.90;;;;;;4144480;28;20046;-84
2021/01/29 01:25:06;;;;;;;11.82;6.65;;;7.60;99.90;;;;;;4153107;28;20040;-84
2021/01/29 01:27:12;;;;;;;12.88;6.93;;;7.60;99.90;;;;;;4145429;28;20359;-84
2021/01/29 01:29:13;;;;;;;10.93;5.78;;;7.70;99.90;;;;;;4149569;28;20037;-84
2021/01/29 01:31:13;;;;;;;13.07;5.95;;;7.70;99.90;;;;;;4169694;28;20113;-84
2021/01/29 01:33:14;;;;;;;17.55;7.82;;;7.70;99.90;;;;;;4164778;28;20034;-84
2021/01/29 01:35:16;;;;;;;13.35;6.45;;;7.70;99.90;;;;;;4167901;28;20485;-84
2021/01/29 01:37:17;;;;;;;;;;;7.80;99.90;;;;;;4159432;28;20026;-84
2021/01/29 01:39:18;;;;;;;16.05;7.22;;;7.70;99.90;;;;;;4150764;28;19916;-84
2021/01/29 01:41:21;;;;;;;15.20;6.53;;;7.70;99.90;;;;;;4163941;28;20040;-84
2021/01/29 01:43:23;;;;;;;12.90;6.68;;;7.80;99.90;;;;;;4161105;28;20040;-84
2021/01/29 01:45:26;;;;;;;16.05;6.93;;;7.80;99.90;;;;;;4144945;28;20052;-84
2021/01/29 01:47:31;;;;;;;15.05;7.03;;;7.80;99.90;;;;;;4161887;28;20461;-84
2021/01/29 01:49:34;;;;;;;14.48;6.05;;;7.90;99.90;;;;;;4163015;28;20032;-84
2021/01/29 01:51:38;;;;;;;8.07;5.03;;;7.80;99.90;;;;;;4160653;28;20061;-84
2021/01/29 01:53:48;;;;;;;14.63;6.00;;;7.90;99.90;;;;;;4155351;28;20034;-84
2021/01/29 01:55:55;;;;;;;11.55;5.88;;;7.90;99.90;;;;;;4138695;28;20050;-84
2021/01/29 01:57:58;;;;;;;13.57;5.22;;;7.90;99.90;;;;;;4148904;28;20038;-84
2021/01/29 02:00:05;;;;;;;8.85;5.00;;;7.90;99.90;;;;;;4167358;28;20029;-84
2021/01/29 02:02:07;;;;;;;13.27;5.55;;;8.00;99.90;;;;;;4165462;28;20029;-84
2021/01/29 02:04:08;;;;;;;;;;;8.00;99.90;;;;;;4145019;28;20494;-84
2021/01/29 02:06:11;;;;;;;13.15;5.53;;;8.10;99.90;;;;;;4153307;28;19909;-84
2021/01/29 02:08:14;;;;;;;17.70;6.30;;;8.00;99.90;;;;;;4144914;28;20045;-84
2021/01/29 02:10:14;;;;;;;13.77;5.93;;;8.10;99.90;;;;;;4158200;28;20029;-84
2021/01/29 02:12:18;;;;;;;12.40;5.38;;;8.10;99.90;;;;;;4148127;28;20026;-84
2021/01/29 02:14:18;;;;;;;19.20;6.15;;;8.10;99.90;;;;;;4144617;28;20108;-84
2021/01/29 02:16:28;;;;;;;15.00;5.40;;;8.20;99.90;;;;;;4152938;28;20461;-84
2021/01/29 02:18:43;;;;;;;13.77;5.85;;;8.20;99.90;;;;;;4144491;28;20085;-84
2021/01/29 02:21:05;;;;;;;16.83;6.38;;;8.20;99.90;;;;;;4168095;28;20029;-84
2021/01/29 02:23:21;;;;;;;18.90;7.30;;;8.30;99.90;;;;;;4148868;28;20041;-84
2021/01/29 02:25:33;;;;;;;13.15;5.75;;;8.30;99.90;;;;;;4176037;28;20029;-84
2021/01/29 02:27:43;;;;;;;19.45;7.18;;;8.30;99.90;;;;;;4151070;28;20044;-84
2021/01/29 02:30:19;;;;;;;12.75;6.38;;;8.30;99.90;;;;;;4153300;28;20022;-84
2021/01/29 02:33:06;;;;;;;13.18;6.18;;;8.30;99.90;;;;;;4178508;28;20033;-84
2021/01/29 02:35:31;;;;;;;10.88;5.32;;;8.40;99.90;;;;;;4163617;28;20029;-84
2021/01/29 02:37:49;;;;;;;11.45;5.47;;;8.40;99.90;;;;;;4164133;28;20042;-84
2021/01/29 02:40:17;;;;;;;10.45;5.00;;;8.40;99.90;;;;;;4137388;28;20113;-84
2021/01/29 02:42:37;;;;;;;7.85;4.22;;;8.40;99.90;;;;;;4168654;28;20038;-84
2021/01/29 02:45:01;;;;;;;10.05;5.68;;;8.40;99.90;;;;;;4135416;28;20045;-84
2021/01/29 02:47:08;;;;;;;9.98;4.55;;;8.50;99.90;;;;;;4147458;28;20066;-84
2021/01/29 02:49:29;;;;;;;9.00;4.88;;;8.50;99.90;;;;;;4148351;28;20041;-84
2021/01/29 02:51:47;;;;;;;12.38;4.95;;;8.50;99.90;;;;;;4147331;28;20037;-84
2021/01/29 02:54:10;;;;;;;9.65;4.70;;;8.50;99.90;;;;;;4157265;28;20143;-84
2021/01/29 02:56:20;;;;;;;;;;;8.50;99.90;;;;;;4164744;28;20025;-84
2021/01/29 02:58:43;;;;;;;12.63;5.93;;;8.50;99.90;;;;;;4164780;28;19915;-84
2021/01/29 03:01:32;;;;;;;7.03;4.25;;;8.50;99.90;;;;;;4159791;28;20041;-84
2021/01/29 03:03:44;;;;;;;8.50;4.57;;;8.60;99.90;;;;;;4136866;28;20041;-84
2021/01/29 03:05:59;;;;;;;6.03;4.20;;;8.60;99.90;;;;;;4148660;28;20030;-84
2021/01/29 03:08:28;;;;;;;6.03;4.00;;;8.60;99.90;;;;;;4145705;28;20113;-84
2021/01/29 03:10:52;;;;;;;5.80;3.80;;;8.60;99.90;;;;;;4145275;28;20072;-84
2021/01/29 03:12:59;;;;;;;6.60;4.47;;;8.60;99.90;;;;;;4160405;28;20120;-84
2021/01/29 03:15:11;;;;;;;7.80;4.43;;;8.60;99.90;;;;;;4165478;28;20107;-84
2021/01/29 03:17:46;;;;;;;7.50;4.00;;;8.60;99.90;;;;;;4170889;28;20460;-84
2021/01/29 03:19:54;;;;;;;5.15;3.88;;;8.70;99.90;;;;;;4145318;28;20285;-84
2021/01/29 03:22:08;;;;;;;4.22;3.15;;;8.60;99.90;;;;;;4148409;28;20049;-84
2021/01/29 03:24:16;;;;;;;6.47;3.63;;;8.70;99.90;;;;;;4162853;28;20592;-84
2021/01/29 03:26:24;;;;;;;6.25;3.53;;;8.60;99.90;;;;;;4162111;28;20036;-84
2021/01/29 03:28:29;;;;;;;7.80;3.75;;;8.70;99.90;;;;;;4173033;28;20072;-84
2021/01/29 03:30:35;;;;;;;5.25;3.75;;;8.70;99.90;;;;;;4146572;28;20040;-84
2021/01/29 03:32:38;;;;;;;6.53;3.58;;;8.70;99.90;;;;;;4170382;28;20413;-84
2021/01/29 03:34:51;;;;;;;4.43;3.28;;;8.70;99.90;;;;;;4162767;28;20516;-84
2021/01/29 03:37:12;;;;;;;5.28;3.38;;;8.70;99.90;;;;;;4152562;28;20025;-84
2021/01/29 03:39:29;;;;;;;7.32;3.97;;;8.70;99.90;;;;;;4145777;28;20038;-84
2021/01/29 03:41:35;;;;;;;4.32;2.80;;;8.80;99.90;;;;;;4153381;28;20121;-84
2021/01/29 03:44:04;;;;;;;4.18;3.40;;;8.70;99.90;;;;;;4162161;28;20060;-84
2021/01/29 03:46:18;;;;;;;10.48;3.25;;;8.70;99.90;;;;;;4155497;28;20065;-84
2021/01/29 03:48:29;;;;;;;4.85;3.08;;;8.80;99.90;;;;;;4170273;28;20577;-84
2021/01/29 03:50:59;;;;;;;5.38;3.80;;;8.80;99.90;;;;;;4163247;28;20037;-84
2021/01/29 03:53:24;;;;;;;6.53;3.75;;;8.70;99.90;;;;;;4165600;28;20047;-84
2021/01/29 03:55:28;;;;;;;4.70;3.67;;;8.80;99.90;;;;;;4162742;28;20223;-84
2021/01/29 03:57:34;;;;;;;5.90;3.55;;;8.80;99.90;;;;;;4146414;28;20490;-84
2021/01/29 03:59:49;;;;;;;4.88;3.40;;;8.80;99.90;;;;;;4170401;28;20140;-84
2021/01/29 04:02:28;;;;;;;6.93;3.50;;;8.80;99.90;;;;;;4145687;28;20429;-84
2021/01/29 04:04:43;;;;;;;5.68;3.05;;;8.80;99.90;;;;;;4162648;28;20538;-84
2021/01/29 04:07:11;;;;;;;3.95;2.95;;;8.80;99.90;;;;;;4159203;28;20056;-84
2021/01/29 04:09:20;;;;;;;3.70;2.55;;;8.80;99.90;;;;;;4149934;28;20056;-84
2021/01/29 04:11:27;;;;;;;4.53;2.75;;;8.90;99.90;;;;;;4163010;28;20673;-84
2021/01/29 04:13:37;;;;;;;4.93;3.28;;;8.90;99.90;;;;;;4148733;28;20071;-84
2021/01/29 04:15:55;;;;;;;4.80;3.05;;;8.90;99.90;;;;;;4153056;28;20041;-84
2021/01/29 04:18:21;;;;;;;6.50;3.78;;;8.90;99.90;;;;;;4141405;28;20056;-84
2021/01/29 04:20:30;;;;;;;7.55;3.55;;;8.90;99.90;;;;;;4148308;28;20147;-84
2021/01/29 04:22:35;;;;;;;7.82;4.53;;;8.90;99.90;;;;;;4161453;28;20050;-84
2021/01/29 04:24:45;;;;;;;8.77;3.97;;;8.90;99.90;;;;;;4162250;28;20044;-84
2021/01/29 04:27:05;;;;;;;9.07;4.10;;;8.90;99.90;;;;;;4137741;28;20045;-84
2021/01/29 04:29:21;;;;;;;7.65;4.43;;;8.90;99.90;;;;;;4173387;28;20068;-84
2021/01/29 04:31:25;;;;;;;6.15;4.30;;;8.90;99.90;;;;;;4149165;28;20057;-84
2021/01/29 04:33:39;;;;;;;6.28;4.45;;;8.90;99.90;;;;;;4149894;28;20481;-84
2021/01/29 04:35:40;;;;;;;5.40;4.10;;;8.90;99.90;;;;;;4148426;28;20096;-84
2021/01/29 04:38:06;;;;;;;6.43;4.30;;;8.90;99.90;;;;;;4144954;28;20586;-84
2021/01/29 04:40:25;;;;;;;7.13;4.60;;;8.90;99.90;;;;;;4146635;28;20033;-84
2021/01/29 04:43:03;;;;;;;6.05;4.10;;;8.90;99.90;;;;;;4144883;28;20034;-84
2021/01/29 04:45:33;;;;;;;5.97;4.55;;;8.90;99.90;;;;;;4156085;28;20029;-84
2021/01/29 04:48:05;;;;;;;7.00;4.18;;;8.90;99.90;;;;;;4147525;28;20116;-84
2021/01/29 04:50:34;;;;;;;8.45;4.70;;;8.90;99.90;;;;;;4166401;28;20116;-84
2021/01/29 04:53:00;;;;;;;8.80;5.18;;;9.00;99.90;;;;;;4143972;28;20030;-84
2021/01/29 04:55:19;;;;;;;11.10;4.70;;;8.90;99.90;;;;;;4161309;28;20037;-84
2021/01/29 04:57:24;;;;;;;7.50;4.85;;;8.90;99.90;;;;;;4151769;28;20553;-84
2021/01/29 04:59:29;;;;;;;7.53;5.13;;;9.00;99.90;;;;;;4176840;28;20029;-84
2021/01/29 05:01:54;;;;;;;8.13;4.72;;;9.00;99.90;;;;;;4144904;28;20108;-84
2021/01/29 05:04:37;;;;;;;5.97;4.00;;;9.00;99.90;;;;;;4155639;28;20029;-84
2021/01/29 05:07:08;;;;;;;8.50;4.73;;;9.00;99.90;;;;;;4140913;28;20075;-84
2021/01/29 05:09:44;;;;;;;6.28;4.38;;;9.00;99.90;;;;;;4167843;28;20034;-84
2021/01/29 05:12:11;;;;;;;7.32;4.15;;;9.00;99.90;;;;;;4147904;28;20029;-84
2021/01/29 05:14:19;;;;;;;10.75;5.15;;;8.90;99.90;;;;;;4139895;28;20082;-84
2021/01/29 05:16:42;;;;;;;7.82;4.60;;;9.00;99.90;;;;;;4137671;28;20041;-84
2021/01/29 05:18:56;;;;;;;5.10;3.83;;;9.00;99.90;;;;;;4152595;28;20046;-84
2021/01/29 05:21:20;;;;;;;7.88;4.45;;;9.00;99.90;;;;;;4159776;28;20092;-84
2021/01/29 05:23:38;;;;;;;8.20;4.70;;;9.00;99.90;;;;;;4137194;28;20043;-84
2021/01/29 05:26:00;;;;;;;8.13;4.32;;;9.00;99.90;;;;;;4182247;28;20044;-84
2021/01/29 05:28:18;;;;;;;7.30;4.40;;;9.00;99.90;;;;;;4144533;28;20034;-84
2021/01/29 05:30:48;;;;;;;8.45;5.10;;;9.00;99.90;;;;;;4176992;28;20120;-84
2021/01/29 05:33:01;;;;;;;7.82;4.65;;;9.00;99.90;;;;;;4155279;28;20056;-84
2021/01/29 05:35:19;;;;;;;6.80;4.60;;;9.00;99.90;;;;;;4172527;28;20537;-84
2021/01/29 05:37:57;;;;;;;9.02;5.03;;;8.90;99.90;;;;;;4139219;28;20030;-84
2021/01/29 05:40:26;;;;;;;7.20;4.65;;;9.00;99.90;;;;;;4157889;28;20064;-84
2021/01/29 05:43:04;;;;;;;7.90;5.18;;;9.00;99.90;;;;;;4165087;28;20033;-84
2021/01/29 05:45:27;;;;;;;8.25;4.55;;;9.00;99.90;;;;;;4148339;28;20060;-84
2021/01/29 05:48:02;;;;;;;9.15;5.05;;;9.00;99.90;;;;;;4160996;28;20030;-84
2021/01/29 05:50:24;;;;;;;8.15;5.20;;;9.00;99.90;;;;;;4164055;28;20121;-84
2021/01/29 05:53:12;;;;;;;9.73;5.75;;;9.00;99.90;;;;;;4146119;28;20394;-84
2021/01/29 05:55:31;;;;;;;6.95;4.93;;;9.00;99.90;;;;;;4111453;28;20034;-84
2021/01/29 06:00:28;;;;;;;9.18;5.82;;;9.00;99.90;;;;;;4158333;28;20104;-84
2021/01/29 06:03:15;;;;;;;8.68;5.65;;;9.00;99.90;;;;;;4157970;28;20050;-84
2021/01/29 06:05:34;;;;;;;9.05;5.35;;;9.00;99.90;;;;;;4169099;28;20041;-84
2021/01/29 06:07:47;;;;;;;6.03;3.95;;;9.00;99.90;;;;;;4162548;28;20046;-84
2021/01/29 06:10:20;;;;;;;5.68;4.10;;;9.00;99.90;;;;;;4142901;28;20033;-84
2021/01/29 06:12:48;;;;;;;5.47;3.70;;;9.00;99.90;;;;;;4161219;28;20117;-84
2021/01/29 06:15:20;;;;;;;4.95;3.20;;;9.10;99.90;;;;;;4146688;28;20096;-84
2021/01/29 06:18:14;;;;;;;5.32;3.25;;;9.10;99.90;;;;;;4163067;28;20432;-84
2021/01/29 06:21:01;;;;;;;5.68;2.55;;;9.10;99.90;;;;;;4123908;28;20045;-84
2021/01/29 06:23:24;;;;;;;3.53;2.00;;;9.20;99.90;;;;;;4167462;28;20147;-84
2021/01/29 06:25:54;;;;;;;4.13;2.20;;;9.20;99.90;;;;;;4169310;28;20513;-84
2021/01/29 06:28:11;;;;;;;2.92;1.73;;;9.20;99.90;;;;;;4121177;28;20030;-84
2021/01/29 06:33:39;;;;;;;1.73;1.05;;;9.20;99.90;;;;;;4162840;28;20040;-84
2021/01/29 06:36:08;;;;;;;1.55;1.13;;;9.30;99.90;;;;;;4148494;28;20041;-84
2021/01/29 06:38:56;;;;;;;2.17;1.30;;;9.30;99.90;;;;;;4141194;28;20417;-84
2021/01/29 06:41:34;;;;;;;1.63;1.52;;;9.30;99.90;;;;;;4142841;28;20506;-84
2021/01/29 06:43:52;;;;;;;4.05;1.58;;;9.30;99.90;;;;;;4145251;28;20045;-84
2021/01/29 06:46:29;;;;;;;2.00;1.63;;;9.30;99.90;;;;;;4146141;28;20038;-84
2021/01/29 06:49:06;;;;;;;3.13;1.73;;;9.30;99.90;;;;;;4153897;28;20493;-84
2021/01/29 06:52:02;;;;;;;1.83;1.42;;;9.30;99.90;;;;;;4144529;28;20029;-84
2021/01/29 06:54:23;;;;;;;5.65;1.73;;;9.30;99.90;;;;;;4162607;28;20082;-84
2021/01/29 06:57:02;;;;;;;3.20;1.63;;;9.20;99.90;;;;;;4163602;28;20050;-84
2021/01/29 06:59:30;;;;;;;3.08;1.40;;;9.30;99.90;;;;;;4140682;28;20040;-84
2021/01/29 07:02:02;;;;;;;1.20;1.10;;;9.20;99.90;;;;;;4162399;28;20037;-84
2021/01/29 07:04:40;;;;;;;2.78;1.55;;;9.20;99.90;;;;;;4145699;28;20533;-85
2021/01/29 07:06:59;;;;;;;2.55;1.65;;;9.20;99.90;;;;;;4156067;28;20040;-84
2021/01/29 07:09:24;;;;;;;4.53;1.60;;;9.20;99.90;;;;;;4144808;28;20502;-84
2021/01/29 07:11:59;;;;;;;2.80;1.90;;;9.20;99.90;;;;;;4162541;28;20032;-83
2021/01/29 07:14:21;;;;;;;2.28;1.70;;;9.20;99.90;;;;;;4164010;28;20114;-82
2021/01/29 07:16:56;;;;;;;1.67;1.50;;;9.20;99.90;;;;;;4146826;28;20038;-83
2021/01/29 07:19:24;;;;;;;2.42;1.65;;;9.20;99.90;;;;;;4161213;28;20025;-83
2021/01/29 07:22:00;;;;;;;3.28;1.90;;;9.20;99.90;;;;;;4162910;28;20041;-83
2021/01/29 07:24:15;;;;;;;3.38;2.60;;;9.20;99.90;;;;;;4152414;28;20109;-83
2021/01/29 07:26:41;;;;;;;3.42;2.25;;;9.20;99.90;;;;;;4151770;28;20060;-83
2021/01/29 07:29:06;;;;;;;3.35;2.50;;;9.20;99.90;;;;;;4175102;28;20025;-83
2021/01/29 07:34:19;;;;;;;4.53;3.15;;;9.20;99.90;;;;;;4180185;28;20632;-82
2021/01/29 07:36:59;;;;;;;7.68;3.60;;;9.30;99.90;;;;;;4161648;28;20030;-83
2021/01/29 07:39:21;;;;;;;5.03;3.75;;;9.30;99.90;;;;;;4157472;28;20034;-83
2021/01/29 07:41:47;;;;;;;5.82;3.75;;;9.30;99.90;;;;;;4178819;28;20025;-83
2021/01/29 07:44:23;;;;;;;6.03;4.47;;;9.30;99.90;;;;;;4186574;28;20509;-83
2021/01/29 07:46:40;;;;;;;7.53;4.40;;;9.40;99.90;;;;;;4178009;28;20053;-83
2021/01/29 07:48:54;;;;;;;6.05;4.32;;;9.40;99.90;;;;;;4145743;28;20041;-83
2021/01/29 07:51:08;;;;;;;5.25;4.22;;;9.40;99.90;;;;;;4149048;28;20062;-83
2021/01/29 07:53:18;;;;;;;4.68;3.92;;;9.30;99.90;;;;;;4172668;28;20033;-83
2021/01/29 07:55:24;;;;;;;4.20;3.80;;;9.40;99.90;;;;;;4146593;28;20112;-83
2021/01/29 07:58:20;;;;;;;5.32;3.80;;;9.40;99.90;;;;;;4162450;28;20428;-82
2021/01/29 08:00:57;;;;;;;4.93;3.65;;;9.30;99.90;;;;;;4134149;28;20038;-83
2021/01/29 08:03:37;;;;;;;6.55;3.42;;;9.40;99.90;;;;;;4154592;28;20492;-83
2021/01/29 08:06:22;;;;;;;6.18;3.95;;;9.30;99.90;;;;;;4145777;28;20517;-83
2021/01/29 08:08:28;;;;;;;6.45;3.08;;;9.30;99.90;;;;;;4160731;28;20044;-83
2021/01/29 08:10:33;;;;;;;10.07;3.63;;;9.40;99.90;;;;;;4166953;28;20398;-83
2021/01/29 08:12:48;;;;;;;7.82;3.47;;;9.40;99.90;;;;;;4146300;28;20073;-83
2021/01/29 08:15:27;;;;;;;9.63;4.00;;;9.40;99.90;;;;;;4140378;28;20113;-83
2021/01/29 08:18:06;;;;;;;10.40;3.60;;;9.40;99.90;;;;;;4170557;28;20032;-82
2021/01/29 08:20:30;;;;;;;10.77;4.00;;;9.40;99.90;;;;;;4158926;28;20516;-84
2021/01/29 08:22:50;;;;;;;11.60;3.72;;;9.40;99.90;;;;;;4160976;28;20040;-84
2021/01/29 08:25:33;;;;;;;15.18;4.15;;;9.40;99.90;;;;;;4172183;28;20025;-84
2021/01/29 08:28:27;;;;;;;14.70;4.22;;;9.40;99.90;;;;;;4170982;28;20033;-84
2021/01/29 08:31:05;;;;;;;17.27;4.45;;;9.40;99.90;;;;;;4160272;28;20623;-84
2021/01/29 08:33:50;;;;;;;13.07;4.15;;;9.50;99.90;;;;;;4146105;28;20033;-84
2021/01/29 08:36:30;;;;;;;20.15;4.25;;;9.50;99.90;;;;;;4163684;28;20556;-84
2021/01/29 08:39:02;;;;;;;18.58;4.03;;;9.50;99.90;;;;;;4162708;28;20022;-84
2021/01/29 08:41:12;;;;;;;22.33;3.97;;;9.50;99.90;;;;;;4143773;28;20528;-84
2021/01/29 08:43:38;;;;;;;18.40;4.30;;;9.50;99.90;;;;;;4144786;28;20117;-84
2021/01/29 08:45:42;;;;;;;17.50;3.80;;;9.50;99.90;;;;;;4159709;28;20180;-84
2021/01/29 08:48:31;;;;;;;18.15;4.05;;;9.50;99.90;;;;;;4161850;28;20036;-84
2021/01/29 08:50:35;;;;;;;21.67;4.82;;;9.50;99.90;;;;;;4165135;28;20751;-84
2021/01/29 08:52:55;;;;;;;14.30;3.75;;;9.40;99.90;;;;;;4150377;28;20185;-83
2021/01/29 08:55:07;;;;;;;12.70;3.88;;;9.40;99.90;;;;;;4178940;28;20029;-83
2021/01/29 08:57:45;;;;;;;24.02;4.45;;;9.40;99.90;;;;;;4145251;28;20394;-83
2021/01/29 08:59:46;;;;;;;24.52;4.25;;;9.40;99.90;;;;;;4161086;28;20040;-84
2021/01/29 09:02:01;;;;;;;23.15;4.50;;;9.40;99.90;;;;;;4164944;28;20092;-84
2021/01/29 09:04:23;;;;;;;20.80;4.35;;;9.40;99.90;;;;;;4164788;28;20091;-84
2021/01/29 09:06:28;;;;;;;21.03;4.13;;;9.40;99.90;;;;;;4160247;28;20025;-84
2021/01/29 09:08:30;;;;;;;17.58;3.50;;;9.40;99.90;;;;;;4168041;28;20144;-84
2021/01/29 09:10:56;;;;;;;31.10;4.90;;;9.40;99.90;;;;;;4147432;28;20030;-84
2021/01/29 09:13:07;;;;;;;19.45;4.15;;;9.40;99.90;;;;;;4140791;28;20018;-84
2021/01/29 09:15:40;;;;;;;25.08;4.57;;;9.40;99.90;;;;;;4161540;28;20082;-84
2021/01/29 09:17:58;;;;;;;20.45;3.95;;;9.30;99.90;;;;;;4148298;28;20026;-84
2021/01/29 09:20:08;;;;;;;22.65;4.10;;;9.30;99.90;;;;;;4146759;28;20034;-84
2021/01/29 09:22:29;;;;;;;25.08;4.25;;;9.40;99.90;;;;;;4168242;28;20026;-84
2021/01/29 09:24:43;;;;;;;30.77;5.40;;;9.30;99.90;;;;;;4162584;28;20033;-83
2021/01/29 09:27:23;;;;;;;25.55;4.93;;;9.40;99.90;;;;;;4162967;28;20021;-83
2021/01/29 09:29:42;;;;;;;26.88;4.65;;;9.40;99.90;;;;;;4161336;28;20425;-83
2021/01/29 09:31:47;;;;;;;20.00;4.18;;;9.30;99.90;;;;;;4144301;28;20452;-83
2021/01/29 09:34:01;;;;;;;21.60;4.53;;;9.40;99.90;;;;;;4162426;28;20032;-84
2021/01/29 09:36:20;;;;;;;25.30;5.22;;;9.40;99.90;;;;;;4157655;28;20029;-84
2021/01/29 09:38:29;;;;;;;23.30;4.93;;;9.30;99.90;;;;;;4160684;28;20107;-84
2021/01/29 09:40:35;;;;;;;22.63;5.25;;;9.40;99.90;;;;;;4163703;28;20433;-84
2021/01/29 09:43:11;;;;;;;24.95;4.57;;;9.40;99.90;;;;;;4170023;28;20112;-84
2021/01/29 09:45:23;;;;;;;28.35;5.18;;;9.40;99.90;;;;;;4163978;28;20441;-84
2021/01/29 09:47:28;;;;;;;21.27;4.70;;;9.40;99.90;;;;;;4172376;28;20029;-84
2021/01/29 09:49:35;;;;;;;25.48;4.93;;;9.40;99.90;;;;;;4160085;28;20099;-84
2021/01/29 09:51:56;;;;;;;23.65;4.78;;;9.30;99.90;;;;;;4144189;28;20030;-84
2021/01/29 09:54:05;;;;;;;22.02;4.65;;;9.30;99.90;;;;;;4170059;28;20047;-84
2021/01/29 09:56:20;;;;;;;33.65;5.20;;;9.40;99.90;;;;;;4164729;28;20041;-84
2021/01/29 09:58:42;;;;;;;30.60;5.70;;;9.30;99.90;;;;;;4152422;28;20736;-84
2021/01/29 10:01:19;;;;;;;25.25;5.20;;;9.30;99.90;;;;;;4150760;28;20041;-84
2021/01/29 10:03:37;;;;;;;25.17;5.30;;;9.40;99.90;;;;;;4156648;28;20558;-84
2021/01/29 10:05:45;;;;;;;21.35;4.90;;;9.40;99.90;;;;;;4161767;28;20590;-84
2021/01/29 10:08:23;;;;;;;36.38;5.95;;;9.40;99.90;;;;;;4174261;28;20033;-84
2021/01/29 10:10:48;;;;;;;26.73;5.70;;;9.40;99.90;;;;;;4162366;28;20406;-84
2021/01/29 10:13:09;;;;;;;20.05;4.97;;;9.40;99.90;;;;;;4160961;28;20092;-84
2021/01/29 10:15:22;;;;;;;28.00;5.43;;;9.50;99.90;;;;;;4164959;28;20077;-84
2021/01/29 10:17:28;;;;;;;27.33;5.15;;;9.50;99.90;;;;;;4161283;28;20033;-84
2021/01/29 10:19:31;;;;;;;25.13;5.10;;;9.50;99.90;;;;;;4163272;28;20037;-84
2021/01/29 10:22:10;;;;;;;17.88;4.88;;;9.50;99.90;;;;;;4150447;28;20037;-84
2021/01/29 10:24:23;;;;;;;23.92;5.78;;;9.60;99.90;;;;;;4157857;28;20026;-84
2021/01/29 10:26:38;;;;;;;22.98;4.85;;;9.60;99.90;;;;;;4160596;28;20089;-83
2021/01/29 10:29:08;;;;;;;23.48;4.95;;;9.70;99.90;;;;;;4143331;28;20034;-83
2021/01/29 10:31:11;;;;;;;34.58;6.00;;;9.70;99.90;;;;;;4160649;28;20036;-83
2021/01/29 10:33:42;;;;;;;27.65;5.40;;;9.70;99.90;;;;;;4161681;28;20029;-84
2021/01/29 10:36:04;;;;;;;20.08;4.95;;;9.80;99.90;;;;;;4162328;28;20045;-84
2021/01/29 10:38:35;;;;;;;21.40;5.57;;;9.80;99.90;;;;;;4161538;28;20030;-84
2021/01/29 10:41:12;;;;;;;28.45;5.68;;;9.80;99.90;;;;;;4163478;28;20478;-84
2021/01/29 10:43:40;;;;;;;22.25;4.57;;;9.90;99.90;;;;;;4166893;28;20033;-84
2021/01/29 10:46:08;;;;;;;19.80;4.80;;;9.90;99.90;;;;;;4159396;28;20037;-84
2021/01/29 10:48:46;;;;;;;23.83;5.57;;;9.90;99.90;;;;;;4158044;28;20034;-84
2021/01/29 10:51:31;;;;;;;30.85;6.13;;;9.90;99.90;;;;;;4144420;28;20445;-84
2021/01/29 10:53:36;;;;;;;25.75;4.63;;;9.90;99.90;;;;;;4149963;28;20500;-84
2021/01/29 10:56:06;;;;;;;21.02;4.93;;;9.90;99.90;;;;;;4153701;28;20050;-84
2021/01/29 10:58:31;;;;;;;19.45;4.28;;;9.90;99.90;;;;;;4169081;28;20147;-84
2021/01/29 11:00:35;;;;;;;18.88;5.20;;;10.00;99.90;;;;;;4125572;28;20468;-84
2021/01/29 11:02:40;;;;;;;24.15;5.50;;;10.00;99.90;;;;;;4151986;28;20034;-84
2021/01/29 11:04:45;;;;;;;24.13;5.80;;;10.00;99.90;;;;;;4148225;28;20041;-84
2021/01/29 11:07:05;;;;;;;28.65;5.60;;;10.00;99.90;;;;;;4171361;28;20029;-84
2021/01/29 11:09:41;;;;;;;35.53;5.88;;;10.10;99.90;;;;;;4147403;28;20061;-84
2021/01/29 11:12:11;;;;;;;31.20;5.80;;;10.10;99.90;;;;;;4152879;28;20049;-84
2021/01/29 11:14:35;;;;;;;24.75;5.25;;;10.10;99.90;;;;;;4166884;28;20273;-84
2021/01/29 11:17:11;;;;;;;21.00;4.40;;;10.10;99.90;;;;;;4179564;28;20025;-84
2021/01/29 11:19:22;;;;;;;21.50;4.72;;;10.20;99.90;;;;;;4159999;28;20528;-84
2021/01/29 11:21:46;;;;;;;28.65;5.45;;;10.20;99.90;;;;;;4165987;28;20037;-84
2021/01/29 11:24:05;;;;;;;26.25;5.15;;;10.30;99.90;;;;;;4158006;28;20029;-84
2021/01/29 11:26:44;;;;;;;26.23;5.47;;;10.40;99.90;;;;;;4161447;28;20371;-84
2021/01/29 11:29:07;;;;;;;20.85;5.00;;;10.30;99.90;;;;;;4158436;28;20030;-84
2021/01/29 11:31:17;;;;;;;22.00;4.20;;;10.30;99.90;;;;;;4169124;28;20041;-84
2021/01/29 11:33:35;;;;;;;19.05;3.83;;;10.30;99.90;;;;;;4163667;28;20034;-83
2021/01/29 11:36:18;;;;;;;23.17;4.88;;;10.40;99.90;;;;;;4162007;28;20112;-84
2021/01/29 11:38:26;;;;;;;27.77;5.10;;;10.40;99.90;;;;;;4175730;28;20037;-84
2021/01/29 11:40:42;;;;;;;15.95;3.90;;;10.40;99.90;;;;;;4178188;28;20033;-84
2021/01/29 11:43:07;;;;;;;18.15;4.68;;;10.40;99.90;;;;;;4145384;28;20030;-84
2021/01/29 11:45:34;;;;;;;19.55;5.10;;;10.40;99.90;;;;;;4162703;28;20038;-83
2021/01/29 11:47:54;;;;;;;19.98;4.82;;;10.40;99.90;;;;;;4140649;28;20124;-84
2021/01/29 11:49:58;;;;;;;24.55;5.97;;;10.30;99.90;;;;;;4160487;28;20510;-84
2021/01/29 11:52:33;;;;;;;24.63;5.53;;;10.30;99.90;;;;;;4144464;28;20046;-84
2021/01/29 11:55:05;;;;;;;21.48;5.43;;;10.30;99.90;;;;;;4149731;28;20120;-84
2021/01/29 11:57:43;;;;;;;19.25;5.00;;;10.20;99.90;;;;;;4159605;28;20072;-84
2021/01/29 11:59:47;;;;;;;19.73;4.85;;;10.20;99.90;;;;;;4157721;28;20029;-84
2021/01/29 12:02:32;;;;;;;27.33;5.60;;;10.20;99.90;;;;;;4160202;28;20041;-83
2021/01/29 12:04:55;;;;;;;29.20;5.47;;;10.20;99.90;;;;;;4176191;28;20130;-84
2021/01/29 12:07:32;;;;;;;27.05;5.65;;;10.30;99.90;;;;;;4146996;28;20470;-84
2021/01/29 12:10:03;;;;;;;24.73;5.07;;;10.20;99.90;;;;;;4166762;28;20017;-83